Time;durP1;ratioP1;P1;durP2;ratioP2;P2;SDS_P1;SDS_P2;PMS_P1;PMS_P2;Temp;Humidity;BMP_temperature;BMP_pressure;BME280_temperature;BME280_humidity;BME280_pressure;Samples;Min_cycle;Max_cycle;Signal;HPM_P1;HPM_P2
2023/04/22 00:00:05;;;;;;;;;;;17.20;69.20;;;17.40;44.90;98020.31;4924656;28;124421;-88
2023/04/22 00:02:32;;;;;;;;;;;17.20;69.30;;;17.39;45.01;98026.31;4927683;28;122121;-90
2023/04/22 00:05:00;;;;;;;;;;;17.20;69.40;;;17.37;44.87;98020.28;4934269;28;114464;-87
2023/04/22 00:07:31;;;;;;;;;;;17.20;69.60;;;17.35;45.01;98020.66;4934613;28;113733;-89
2023/04/22 00:09:57;;;;;;;;;;;17.10;69.60;;;17.32;45.06;98029.78;4934927;28;124520;-88
2023/04/22 00:12:24;;;;;;;;;;;17.10;69.60;;;17.30;45.05;98015.41;4937202;28;124116;-90
2023/04/22 00:14:50;;;;;;;;;;;17.10;69.90;;;17.28;45.22;98014.97;4929950;28;113165;-88
2023/04/22 00:17:33;;;;;;;;;;;17.10;70.00;;;17.26;45.24;98013.75;4954948;28;112879;-88
2023/04/22 00:20:03;;;;;;;;;;;17.10;70.00;;;17.22;45.50;98020.09;4937222;28;124439;-87
2023/04/22 00:22:30;;;;;;;;;;;17.00;70.20;;;17.18;45.47;98010.84;4921625;28;123129;-87
2023/04/22 00:24:56;;;;;;;;;;;17.00;70.40;;;17.18;45.47;98018.41;4954358;28;112753;-90
2023/04/22 00:27:24;;;;;;;;;;;17.00;70.50;;;17.15;45.65;98011.59;4923413;28;114048;-88
2023/04/22 00:29:50;;;;;;;;;;;17.00;70.80;;;17.16;45.86;98017.97;4935278;28;123773;-88
2023/04/22 00:32:21;;;;;;;;;;;16.90;70.90;;;17.13;45.95;98005.56;4935524;28;123731;-87
2023/04/22 00:34:48;;;;;;;;;;;16.90;71.20;;;17.12;46.23;98015.13;4926921;28;114551;-87
2023/04/22 00:37:18;;;;;;;;;;;16.90;71.50;;;17.09;46.47;98010.31;4939991;28;114250;-88
2023/04/22 00:39:45;;;;;;;;;;;16.80;71.70;;;17.07;46.64;98007.06;4931955;28;124218;-88
2023/04/22 00:42:12;;;;;;;;;;;16.80;71.90;;;17.06;46.54;98011.06;4939673;28;123228;-87
2023/04/22 00:44:52;;;;;;;;;;;16.80;72.20;;;17.04;46.96;98007.84;4936857;28;114642;-88
2023/04/22 00:47:18;;;;;;;;;;;16.80;72.50;;;17.00;47.05;98001.38;4917561;28;111914;-88
2023/04/22 00:49:45;;;;;;;;;;;16.70;72.60;;;16.99;46.98;98008.16;4934145;28;124566;-87
2023/04/22 00:52:33;;;;;;;;;;;16.70;72.90;;;16.97;47.22;98016.09;4935319;28;123012;-87
2023/04/22 00:55:01;;;;;;;;;;;16.70;73.10;;;16.94;47.22;98019.63;4931886;28;114663;-87
2023/04/22 00:57:31;;;;;;;;;;;16.70;73.30;;;16.93;47.33;98009.66;4936820;28;113674;-87
2023/04/22 00:59:58;;;;;;;;;;;16.70;73.50;;;16.91;47.33;98012.00;4920351;28;123005;-87
2023/04/22 01:02:37;;;;;;;;;;;16.70;73.60;;;16.89;47.62;98015.16;4931656;28;124687;-88
2023/04/22 01:05:04;;;;;;;;;;;16.70;73.70;;;16.85;47.48;98010.72;4933834;28;114460;-87
2023/04/22 01:07:58;;;;;;;;;;;16.60;73.70;;;16.82;47.55;98019.81;4931089;28;113678;-87
2023/04/22 01:10:25;;;;;;;;;;;16.60;73.80;;;16.77;47.52;98020.94;4930771;28;123342;-87
2023/04/22 01:12:57;;;;;;;;;;;16.60;74.10;;;16.73;47.57;98026.41;4945890;28;124010;-88
2023/04/22 01:15:25;;;;;;;;;;;16.50;74.00;;;16.71;47.90;98011.22;4930121;28;114503;-88
2023/04/22 01:17:55;;;;;;;;;;;16.50;74.10;;;16.70;47.69;98020.78;4931026;28;113952;-87
2023/04/22 01:20:28;;;;;;;;;;;16.50;74.30;;;16.67;47.86;98022.34;4932913;28;124117;-87
2023/04/22 01:23:18;;;;;;;;;;;16.50;74.40;;;16.65;48.09;98019.09;4932629;28;124717;-87
2023/04/22 01:25:45;;;;;;;;;;;16.50;74.60;;;16.64;47.85;98011.94;4930779;28;116575;-86
2023/04/22 01:28:32;;;;;;;;;;;16.40;74.60;;;16.62;47.90;98019.84;4909072;28;114303;-90
2023/04/22 01:31:03;;;;;;;;;;;16.40;74.70;;;16.62;48.08;98019.84;4930113;28;122772;-90
2023/04/22 01:33:38;;;;;;;;;;;16.40;74.60;;;16.60;47.99;98024.19;4938649;28;124069;-88
2023/04/22 01:36:05;;;;;;;;;;;16.40;74.80;;;16.59;47.76;98015.03;4926662;28;114120;-88
2023/04/22 01:38:33;;;;;;;;;;;16.30;74.70;;;16.58;47.98;98019.00;4937864;28;113130;-88
2023/04/22 01:41:06;;;;;;;;;;;16.30;74.80;;;16.56;47.83;98019.34;4936101;28;123692;-88
2023/04/22 01:43:34;;;;;;;;;;;16.30;74.80;;;16.56;48.04;98018.56;4922250;28;123947;-88
2023/04/22 01:46:02;;;;;;;;;;;16.30;74.90;;;16.54;47.92;98020.91;4936401;28;114275;-90
2023/04/22 01:48:29;;;;;;;;;;;16.30;75.00;;;16.52;48.01;98024.09;4921053;28;113509;-88
2023/04/22 01:51:08;;;;;;;;;;;16.20;74.80;;;16.50;47.90;98026.44;4941064;28;124565;-88
2023/04/22 01:53:40;;;;;;;;;;;16.20;75.00;;;16.47;47.87;98023.56;4919946;28;123689;-89
2023/04/22 01:56:07;;;;;;;;;;;16.30;75.20;;;16.45;48.02;98020.34;4921327;28;113905;-88
2023/04/22 01:58:40;;;;;;;;;;;16.20;75.20;;;16.43;48.20;98019.91;4936529;28;111927;-89
2023/04/22 02:01:08;;;;;;;;;;;16.20;75.40;;;16.38;48.08;98020.22;4933301;28;124693;-88
2023/04/22 02:03:39;;;;;;;;;;;16.10;75.40;;;16.39;48.55;98016.25;4935128;28;121915;-87
2023/04/22 02:06:16;;;;;;;;;;;16.10;75.50;;;16.35;48.15;98022.56;4933647;28;114924;-89
2023/04/22 02:08:59;;;;;;;;;;;16.20;75.70;;;16.32;48.59;98023.31;4936521;28;112334;-87
2023/04/22 02:11:29;;;;;;;;;;;16.10;75.70;;;16.32;48.66;98028.06;4936525;28;124636;-88
2023/04/22 02:13:56;;;;;;;;;;;16.10;75.90;;;16.31;48.75;98029.25;4935008;28;124171;-87
2023/04/22 02:16:29;;;;;;;;;;;16.10;76.10;;;16.30;48.66;98036.78;4936196;28;114202;-88
2023/04/22 02:19:24;;;;;;;;;;;16.10;76.30;;;16.28;48.59;98027.19;4919702;28;114428;-88
2023/04/22 02:21:54;;;;;;;;;;;16.10;76.50;;;16.26;49.08;98035.94;4948046;28;124046;-87
2023/04/22 02:24:25;;;;;;;;;;;16.00;76.60;;;16.25;49.00;98034.31;4934391;28;123652;-87
2023/04/22 02:27:29;;;;;;;;;;;16.00;76.70;;;16.24;49.09;98031.91;4920027;28;113838;-88
2023/04/22 02:30:06;;;;;;;;;;;16.00;76.90;;;16.21;48.99;98044.59;4929982;28;112995;-87
2023/04/22 02:32:32;;;;;;;;;;;16.00;77.10;;;16.18;49.42;98045.34;4905613;28;122486;-87
2023/04/22 02:35:04;;;;;;;;;;;16.00;77.20;;;16.19;49.27;98040.56;4932809;28;124440;-88
2023/04/22 02:37:38;;;;;;;;;;;15.90;77.30;;;16.16;49.41;98042.09;4930541;28;113693;-87
2023/04/22 02:40:26;;;;;;;;;;;15.90;77.40;;;16.12;49.27;98041.25;4926221;28;112827;-86
2023/04/22 02:42:54;;;;;;;;;;;15.90;77.50;;;16.10;49.29;98044.38;4932180;28;124043;-87
2023/04/22 02:45:31;;;;;;;;;;;15.90;77.60;;;16.09;49.29;98047.53;4934778;28;122416;-87
2023/04/22 02:48:10;;;;;;;;;;;15.90;77.70;;;16.07;49.34;98049.91;4917864;28;113539;-87
2023/04/22 02:51:05;;;;;;;;;;;15.80;77.60;;;16.04;49.35;98045.03;4918448;28;113857;-86
2023/04/22 02:53:33;;;;;;;;;;;15.80;77.70;;;16.03;49.74;98055.38;4918758;28;123802;-86
2023/04/22 02:56:07;;;;;;;;;;;15.80;77.70;;;16.02;49.55;98056.56;4931149;28;123649;-87
2023/04/22 02:58:44;;;;;;;;;;;15.80;77.80;;;16.01;49.56;98052.19;4918116;28;116036;-89
2023/04/22 03:01:16;;;;;;;;;;;15.80;78.00;;;16.00;49.81;98055.31;4919343;28;112028;-87
2023/04/22 03:03:56;;;;;;;;;;;15.80;78.00;;;15.97;49.54;98050.47;4917337;28;122670;-88
2023/04/22 03:06:26;;;;;;;;;;;15.70;78.10;;;15.95;49.98;98045.25;4918384;28;121921;-87
2023/04/22 03:08:59;;;;;;;;;;;15.70;78.30;;;15.93;49.78;98044.81;4933625;28;115431;-88
2023/04/22 03:11:26;;;;;;;;;;;15.70;78.40;;;15.92;49.84;98034.06;4918345;28;114392;-87
2023/04/22 03:13:59;;;;;;;;;;;15.70;78.60;;;15.90;50.02;98031.63;4930449;28;124367;-88
2023/04/22 03:16:32;;;;;;;;;;;15.70;78.80;;;15.85;50.06;98029.97;4915359;28;122486;-86
2023/04/22 03:19:06;;;;;;;;;;;15.60;78.90;;;15.83;50.12;98037.88;4917132;28;113635;-87
2023/04/22 03:21:32;;;;;;;;;;;15.60;79.00;;;15.81;50.57;98036.63;4934768;28;112256;-87
2023/04/22 03:24:04;;;;;;;;;;;15.60;79.10;;;15.80;50.42;98043.38;4914424;28;123771;-88
2023/04/22 03:26:31;;;;;;;;;;;15.60;79.30;;;15.77;50.59;98036.56;4909526;28;123582;-88
2023/04/22 03:29:23;;;;;;;;;;;15.50;79.30;;;15.74;50.54;98042.84;4929901;28;114344;-86
2023/04/22 03:32:00;;;;;;;;;;;15.50;79.60;;;15.73;50.93;98044.00;4934791;28;113282;-86
2023/04/22 03:34:28;;;;;;;;;;;15.50;79.80;;;15.71;50.99;98048.34;4918776;28;122888;-86
2023/04/22 03:37:24;;;;;;;;;;;15.50;80.00;;;15.66;50.82;98046.59;4918619;28;123179;-86
2023/04/22 03:39:55;;;;;;;;;;;15.50;80.20;;;15.64;51.26;98040.63;4921506;28;114388;-85
2023/04/22 03:42:24;;;;;;;;;;;15.50;80.40;;;15.62;51.27;98045.75;4920032;28;113156;-86
2023/04/22 03:44:51;;;;;;;;;;;15.40;80.60;;;15.59;51.16;98052.84;4904392;28;122732;-87
2023/04/22 03:47:21;;;;;;;;;;;15.40;80.70;;;15.60;51.38;98053.63;4931894;28;123190;-86
2023/04/22 03:49:59;;;;;;;;;;;15.40;81.00;;;15.59;51.32;98057.59;4904936;28;112688;-87
2023/04/22 03:52:26;;;;;;;;;;;15.40;81.10;;;15.54;51.62;98055.09;4920042;28;112127;-86
2023/04/22 03:55:00;;;;;;;;;;;15.30;81.20;;;15.53;51.63;98054.31;4929923;28;124672;-86
2023/04/22 03:57:33;;;;;;;;;;;15.30;81.30;;;15.50;51.79;98056.97;4937416;28;123020;-86
2023/04/22 04:00:20;;;;;;;;;;;15.30;81.50;;;15.44;51.68;98051.69;4913904;28;114350;-86
2023/04/22 04:03:17;;;;;;;;;;;15.20;81.50;;;15.40;51.55;98061.97;4935950;28;115607;-86
2023/04/22 04:05:48;;;;;;;;;;;15.20;81.70;;;15.40;51.80;98059.19;4824901;29;123173;-88
2023/04/22 04:08:22;;;;;;;;;;;15.20;81.80;;;15.40;51.96;98061.16;4809792;29;122957;-88
2023/04/22 04:10:48;;;;;;;;;;;15.20;82.00;;;15.35;51.78;98053.88;4804826;29;114072;-86
2023/04/22 04:13:14;;;;;;;;;;;15.10;82.00;;;15.32;52.29;98054.63;4829865;29;112414;-85
2023/04/22 04:15:41;;;;;;;;;;;15.10;82.20;;;15.26;52.27;98042.16;4827755;29;122226;-86
2023/04/22 04:18:14;;;;;;;;;;;15.10;82.40;;;15.27;52.32;98052.13;4844438;29;123256;-86
2023/04/22 04:20:41;;;;;;;;;;;15.10;82.70;;;15.26;52.35;98050.50;4831313;29;112841;-87
2023/04/22 04:23:07;;;;;;;;;;;15.10;82.80;;;15.24;52.67;98042.50;4843586;29;113142;-87
2023/04/22 04:25:38;;;;;;;;;;;15.00;82.90;;;15.23;52.65;98038.13;4845430;29;123735;-88
2023/04/22 04:28:11;;;;;;;;;;;15.00;83.20;;;15.21;52.87;98039.66;4863271;29;123617;-86
2023/04/22 04:30:41;;;;;;;;;;;15.00;83.40;;;15.18;52.83;98037.59;4862512;29;113452;-87
2023/04/22 04:33:20;;;;;;;;;;;15.00;83.40;;;15.15;52.70;98046.63;4844948;29;112932;-87
2023/04/22 04:35:52;;;;;;;;;;;14.90;83.50;;;15.12;52.74;98044.59;4828617;29;123744;-88
2023/04/22 04:38:19;;;;;;;;;;;14.90;83.70;;;15.08;53.03;98052.06;4814842;29;122791;-86
2023/04/22 04:40:51;;;;;;;;;;;14.80;83.70;;;15.06;53.01;98040.47;4815364;29;112739;-87
2023/04/22 04:43:32;;;;;;;;;;;14.80;83.90;;;15.02;53.09;98035.63;4885228;28;113252;-88
2023/04/22 04:46:07;;;;;;;;;;;14.90;84.20;;;15.02;53.40;98041.19;4884029;28;123383;-87
2023/04/22 04:48:49;;;;;;;;;;;14.80;84.30;;;15.01;53.20;98039.56;4884504;28;123304;-88
2023/04/22 04:51:24;;;;;;;;;;;14.80;84.50;;;15.04;53.51;98038.03;4868578;28;115506;-89
2023/04/22 04:53:50;;;;;;;;;;;14.70;84.60;;;15.04;53.22;98035.25;4863161;28;113768;-86
2023/04/22 04:56:16;;;;;;;;;;;14.80;84.80;;;15.07;53.57;98039.28;4879983;28;122154;-87
2023/04/22 04:58:44;;;;;;;;;;;14.80;85.00;;;15.08;53.50;98032.59;4848516;28;123248;-86
2023/04/22 05:01:11;;;;;;;;;;;14.80;85.20;;;15.09;53.25;98034.19;4851528;28;114355;-89
2023/04/22 05:03:45;;;;;;;;;;;13.80;84.40;;;15.11;53.62;98032.66;4864003;28;114378;-88
2023/04/22 05:06:19;;;;;;;;;;;14.80;85.50;;;15.12;53.55;98034.25;4845293;29;123891;-85
2023/04/22 05:08:45;;;;;;;;;;;14.80;85.60;;;15.13;53.60;98032.31;4863412;29;123066;-88
2023/04/22 05:11:25;;;;;;;;;;;14.80;85.70;;;15.13;53.61;98029.53;4863570;29;114098;-87
2023/04/22 05:13:55;;;;;;;;;;;14.80;85.90;;;15.14;53.59;98039.47;4849436;29;111872;-90
2023/04/22 05:16:21;;;;;;;;;;;14.90;86.10;;;15.13;53.63;98038.69;4854269;28;123431;-88
2023/04/22 05:18:47;;;;;;;;;;;14.80;86.00;;;15.15;53.70;98043.84;4900402;28;122428;-87
2023/04/22 05:21:23;;;;;;;;;;;14.80;86.10;;;15.15;53.52;98035.50;4881393;28;113901;-89
2023/04/22 05:24:11;;;;;;;;;;;14.90;86.30;;;15.13;53.70;98033.09;4897294;28;114114;-88
2023/04/22 05:26:49;;;;;;;;;;;14.80;86.30;;;15.13;53.81;98037.88;4902954;28;123927;-89
2023/04/22 05:29:25;;;;;;;;;;;14.90;86.50;;;15.12;53.83;98041.81;4870479;28;122094;-87
2023/04/22 05:31:54;;;;;;;;;;;14.80;86.40;;;15.13;53.74;98043.44;4911182;28;113510;-88
2023/04/22 05:34:34;;;;;;;;;;;14.80;86.50;;;15.12;53.50;98039.03;4922761;28;113024;-88
2023/04/22 05:37:19;;;;;;;;;;;14.80;86.50;;;15.11;53.73;98046.56;4923834;28;123774;-88
2023/04/22 05:40:02;;;;;;;;;;;14.80;86.60;;;15.14;53.60;98050.59;4933346;28;123408;-86
2023/04/22 05:42:31;;;;;;;;;;;14.80;86.60;;;15.15;53.72;98049.44;4924911;28;113383;-86
2023/04/22 05:45:09;;;;;;;;;;;14.80;86.70;;;15.16;53.55;98051.06;4929223;28;114697;-88
2023/04/22 05:47:40;;;;;;;;;;;14.90;86.80;;;15.17;53.67;98052.66;4939643;28;123588;-88
2023/04/22 05:50:07;;;;;;;;;;;14.80;86.80;;;15.18;53.56;98057.88;4923976;28;123307;-88
2023/04/22 05:52:40;;;;;;;;;;;14.90;86.90;;;15.21;53.47;98054.38;4931236;28;113334;-88
2023/04/22 05:55:06;;;;;;;;;;;14.80;86.70;;;15.21;53.56;98054.38;4935346;28;112521;-87
2023/04/22 05:57:41;;;;;;;;;;;14.90;86.80;;;15.26;53.46;98056.06;4935953;28;122270;-87
2023/04/22 06:00:13;;;;;;;;;;;14.90;86.90;;;15.29;53.40;98060.09;4948693;28;123836;-87
2023/04/22 06:02:48;;;;;;;;;;;14.90;87.10;;;15.30;53.34;98058.94;4939419;28;113905;-88
2023/04/22 06:05:22;;;;;;;;;;;14.90;87.10;;;15.32;53.61;98059.38;4918961;28;112787;-87
2023/04/22 06:07:48;;;;;;;;;;;14.90;87.20;;;15.34;53.51;98059.81;4921911;28;122531;-89
2023/04/22 06:10:15;;;;;;;;;;;15.00;87.30;;;15.38;53.50;98057.94;4949441;28;122898;-85
2023/04/22 06:12:43;;;;;;;;;;;15.00;87.30;;;15.40;53.23;98056.41;4954180;28;113818;-86
2023/04/22 06:15:33;;;;;;;;;;;15.10;87.20;;;15.38;53.05;98058.72;4943208;28;112858;-88
2023/04/22 06:17:59;;;;;;;;;;;14.70;86.60;;;15.39;52.83;98065.94;4905683;28;123456;-88
2023/04/22 06:20:26;;;;;;;;;;;15.00;86.80;;;15.39;53.13;98056.75;4935547;28;124446;-87
2023/04/22 06:23:04;;;;;;;;;;;15.00;86.90;;;15.41;53.19;98060.78;4923911;28;113109;-88
2023/04/22 06:25:31;;;;;;;;;;;15.00;87.30;;;15.40;53.39;98061.97;4947769;28;112872;-87
2023/04/22 06:28:02;;;;;;;;;;;15.10;87.50;;;15.44;53.57;98050.91;4929325;28;122878;-86
2023/04/22 06:30:28;;;;;;;;;;;15.10;87.80;;;15.44;53.64;98067.59;4924442;28;122416;-88
2023/04/22 06:33:02;;;;;;;;;;;15.00;87.90;;;15.43;53.78;98061.22;4918252;28;114556;-87
2023/04/22 06:35:34;;;;;;;;;;;15.00;88.00;;;15.41;53.88;98058.00;4917201;28;113993;-87
2023/04/22 06:38:22;;;;;;;;;;;15.00;88.20;;;15.42;53.94;98062.41;4921194;28;122896;-88
2023/04/22 06:41:04;;;;;;;;;;;15.00;88.40;;;15.44;53.78;98060.06;4916713;28;122148;-88
2023/04/22 06:43:30;;;;;;;;;;;15.00;88.40;;;15.50;54.12;98071.75;4907851;28;112770;-88
2023/04/22 06:45:57;;;;;;;;;;;15.00;88.30;;;15.52;54.12;98068.56;4945238;28;113676;-89
2023/04/22 06:48:26;;;;;;;;;;;15.20;88.70;;;15.54;54.10;98067.03;4928425;28;124352;-88
2023/04/22 06:50:53;;;;;;;;;;;15.20;88.80;;;15.55;54.08;98057.50;4922731;28;123268;-88
2023/04/22 06:53:27;;;;;;;;;;;15.20;88.80;;;15.62;54.10;98066.03;4934568;28;113363;-88
2023/04/22 06:55:54;;;;;;;;;;;15.20;88.80;;;15.64;54.11;98069.25;4931304;28;113614;-88
2023/04/22 06:58:23;;;;;;;;;;;15.20;89.10;;;15.63;54.15;98070.41;4930726;28;124465;-89
2023/04/22 07:00:50;;;;;;;;;;;13.70;87.70;;;15.64;54.07;98071.25;4930315;28;123391;-87
2023/04/22 07:03:19;;;;;;;;;;;15.20;89.00;;;15.63;54.19;98070.41;4924100;28;113783;-89
2023/04/22 07:05:47;;;;;;;;;;;15.20;89.10;;;15.64;53.78;98068.47;4924507;28;113670;-89
2023/04/22 07:08:15;;;;;;;;;;;15.20;89.00;;;15.66;53.98;98066.09;4917915;28;123469;-89
2023/04/22 07:10:48;;;;;;;;;;;15.20;89.00;;;15.67;53.65;98070.50;4928407;28;122393;-89
2023/04/22 07:13:14;;;;;;;;;;;15.20;89.10;;;15.63;53.88;98069.63;4916829;28;113443;-87
2023/04/22 07:15:45;;;;;;;;;;;15.30;89.00;;;15.63;53.60;98064.03;4935157;28;113214;-89
2023/04/22 07:18:20;;;;;;;;;;;15.20;89.10;;;15.60;53.81;98064.78;4917040;28;124217;-90
2023/04/22 07:20:47;;;;;;;;;;;15.20;89.10;;;15.62;53.93;98054.09;4876228;28;122304;-89
2023/04/22 07:23:14;;;;;;;;;;;15.20;89.10;;;15.65;53.92;98058.94;4877337;28;114505;-90
2023/04/22 07:25:41;;;;;;;;;;;15.20;89.30;;;15.66;54.07;98043.81;4900085;28;115210;-88
2023/04/22 07:28:13;;;;;;;;;;;15.30;89.30;;;15.74;53.75;98047.59;4883275;28;123685;-90
2023/04/22 07:30:39;;;;;;;;;;;15.30;89.30;;;15.78;53.58;98048.50;4885705;28;121303;-90
2023/04/22 07:33:21;;;;;;;;;;;15.30;89.20;;;15.81;53.74;98044.97;4881121;28;112432;-89
2023/04/22 07:35:55;;;;;;;;;;;15.40;89.20;;;15.90;53.29;98040.81;4898481;28;113928;-90
2023/04/22 07:38:28;;;;;;;;;;;15.50;89.20;;;15.96;53.15;98034.91;4886666;28;123511;-89
2023/04/22 07:41:01;;;;;;;;;;;15.50;88.90;;;16.03;53.25;98032.28;4880275;28;122042;-90
2023/04/22 07:43:28;;;;;;;;;;;15.60;88.90;;;16.07;53.65;98038.75;4895552;28;112701;-90
2023/04/22 07:45:56;;;;;;;;;;;15.70;89.30;;;16.12;53.21;98030.91;4878972;28;112102;-91
2023/04/22 07:48:24;;;;;;;;;;;15.70;89.10;;;16.23;53.21;98044.25;4876226;28;122499;-90
2023/04/22 07:50:51;;;;;;;;;;;15.80;89.00;;;16.30;53.43;98045.16;4893667;28;123660;-90
2023/04/22 07:53:29;;;;;;;;;;;15.90;89.00;;;16.43;52.71;98047.78;4902782;28;114217;-91
2023/04/22 07:55:55;;;;;;;;;;;16.00;89.00;;;16.53;52.62;98047.19;4884068;28;111851;-90
2023/04/22 07:58:28;;;;;;;;;;;16.00;88.80;;;16.61;52.26;98051.72;4877189;28;123517;-92
2023/04/22 08:00:56;;;;;;;;;;;16.10;88.60;;;16.72;52.32;98049.13;4877340;28;123056;-91
2023/04/22 08:03:23;;;;;;;;;;;16.20;88.60;;;16.83;51.90;98061.28;4882484;28;112987;-91
2023/04/22 08:05:50;;;;;;;;;;;16.30;88.10;;;16.92;51.43;98049.88;4874384;28;113201;-90
2023/04/22 08:08:16;;;;;;;;;;;16.40;87.90;;;17.04;51.27;98068.44;4900771;28;123525;-90
2023/04/22 08:10:46;;;;;;;;;;;16.40;87.80;;;17.14;50.98;98065.81;4930218;28;122717;-90
2023/04/22 08:13:13;;;;;;;;;;;16.50;87.50;;;17.22;50.80;98052.75;4925488;28;113814;-90
2023/04/22 08:15:41;;;;;;;;;;;16.60;87.20;;;17.32;50.46;98062.47;4927021;28;113235;-90
2023/04/22 08:18:11;;;;;;;;;;;16.70;86.80;;;17.39;49.51;98051.44;4920931;28;123375;-90
2023/04/22 08:20:37;;;;;;;;;;;16.80;85.90;;;17.41;48.94;98049.88;4923662;28;123213;-90
2023/04/22 08:23:05;;;;;;;;;;;16.90;84.80;;;17.44;48.59;98049.13;4909614;28;112495;-90
2023/04/22 08:25:32;;;;;;;;;;;16.20;83.60;;;17.47;48.45;98046.75;4924059;28;112892;-91
2023/04/22 08:27:58;;;;;;;;;;;17.00;83.70;;;17.51;48.26;98045.59;4921041;28;125691;-90
2023/04/22 08:30:27;;;;;;;;;;;17.10;83.50;;;17.55;48.09;98043.69;4921592;28;125403;-88
2023/04/22 08:32:59;;;;;;;;;;;17.10;83.10;;;17.63;47.94;98050.19;4928669;28;114125;-90
2023/04/22 08:35:36;;;;;;;;;;;17.20;83.10;;;17.75;48.01;98046.34;4925830;28;114023;-89
2023/04/22 08:38:02;;;;;;;;;;;17.30;83.10;;;17.88;47.88;98050.53;4920640;28;123822;-91
2023/04/22 08:40:29;;;;;;;;;;;17.30;83.10;;;17.99;47.43;98042.28;4935538;28;124155;-91
2023/04/22 08:42:56;;;;;;;;;;;17.60;83.00;;;18.10;46.95;98038.44;4920964;28;114264;-93
2023/04/22 08:45:23;;;;;;;;;;;17.50;82.40;;;18.20;46.55;98039.75;4895244;28;112682;-92
2023/04/22 08:47:51;;;;;;;;;;;17.60;81.90;;;18.30;46.13;98038.28;4929971;28;123299;-88
2023/04/22 08:50:19;;;;;;;;;;;17.70;81.50;;;18.38;46.41;98037.16;4931622;28;123507;-90
2023/04/22 08:52:48;;;;;;;;;;;17.80;81.50;;;18.48;46.53;98038.44;4928197;28;114350;-90
2023/04/22 08:55:16;;;;;;;;;;;17.80;81.50;;;18.58;46.07;98032.16;4930206;28;114029;-90
2023/04/22 08:57:44;;;;;;;;;;;17.90;81.50;;;18.69;46.04;98037.84;4914759;28;123918;-90
2023/04/22 09:00:11;;;;;;;;;;;18.10;81.30;;;18.77;45.44;98028.38;4928721;28;123176;-91
2023/04/22 09:02:43;;;;;;;;;;;18.10;80.50;;;18.86;45.37;98026.06;4926816;28;113417;-91
2023/04/22 09:05:11;;;;;;;;;;;18.20;80.40;;;18.96;45.27;98024.53;4940166;28;113765;-89
2023/04/22 09:07:37;;;;;;;;;;;18.30;80.30;;;19.08;44.94;98018.63;4925553;28;122846;-91
2023/04/22 09:10:05;;;;;;;;;;;18.40;79.80;;;19.15;44.51;98021.47;4920980;28;122027;-89
2023/04/22 09:12:31;;;;;;;;;;;18.00;78.80;;;19.22;44.12;98014.34;4931821;28;116173;-90
2023/04/22 09:14:57;;;;;;;;;;;18.60;78.80;;;19.32;43.63;98008.81;4927411;28;112957;-89
2023/04/22 09:17:34;;;;;;;;;;;18.70;78.00;;;19.42;43.20;98010.06;4913244;28;124152;-90
2023/04/22 09:20:01;;;;;;;;;;;18.80;77.60;;;19.50;43.21;98008.91;4927869;28;124112;-90
2023/04/22 09:22:30;;;;;;;;;;;18.80;77.30;;;19.58;42.72;98004.16;4922001;28;114267;-89
2023/04/22 09:24:56;;;;;;;;;;;19.00;76.60;;;19.65;42.17;98007.00;4922792;28;113904;-93
2023/04/22 09:27:24;;;;;;;;;;;19.00;75.80;;;19.71;41.89;98007.44;4919307;28;124028;-91
2023/04/22 09:29:55;;;;;;;;;;;19.10;75.10;;;19.79;41.93;98004.28;4913460;28;123123;-91
2023/04/22 09:32:24;;;;;;;;;;;19.20;75.00;;;19.90;41.63;98009.13;4912758;28;113580;-92
2023/04/22 09:34:54;;;;;;;;;;;19.30;74.70;;;19.99;40.94;98006.78;4927047;28;113875;-89
2023/04/22 09:37:25;;;;;;;;;;;19.40;73.90;;;20.07;40.63;98008.41;4913254;28;123695;-93
2023/04/22 09:39:54;;;;;;;;;;;19.50;73.40;;;20.15;40.36;98018.47;4927288;28;124164;-92
2023/04/22 09:42:20;;;;;;;;;;;19.60;73.00;;;20.24;39.89;97998.44;4913495;28;112548;-91
2023/04/22 09:44:54;;;;;;;;;;;19.60;71.50;;;20.31;39.51;98001.28;4922209;28;112791;-85
2023/04/22 09:47:22;;;;;;;;;;;19.70;71.10;;;20.39;39.76;98007.69;4925400;28;124177;-80
2023/04/22 09:49:49;;;;;;;;;;;19.80;71.00;;;20.42;38.52;98001.31;4926382;28;124305;-80
2023/04/22 09:52:34;;;;;;;;;;;19.80;69.50;;;20.47;39.20;97998.06;4928682;28;115561;-83
2023/04/22 09:55:00;;;;;;;;;;;20.00;69.90;;;20.56;38.96;97997.75;4933114;28;114700;-84
2023/04/22 09:57:26;;;;;;;;;;;20.10;70.40;;;20.64;38.83;97994.53;4921252;28;123345;-83
2023/04/22 09:59:57;;;;;;;;;;;20.10;69.80;;;20.70;38.67;97992.13;4933004;28;125007;-81
2023/04/22 10:02:30;;;;;;;;;;;20.20;69.50;;;20.76;38.09;97989.72;4932454;28;114629;-82
2023/04/22 10:04:57;;;;;;;;;;;20.20;68.60;;;20.80;38.21;97985.72;4919802;28;113431;-80
2023/04/22 10:07:26;;;;;;;;;;;20.30;68.50;;;20.90;37.69;97984.09;4926911;28;124210;-79
2023/04/22 10:09:52;;;;;;;;;;;20.40;67.90;;;20.96;38.00;97971.28;4927322;28;123950;-79
2023/04/22 10:12:19;;;;;;;;;;;20.40;67.50;;;21.03;37.78;97962.84;4925722;28;114353;-85
2023/04/22 10:14:45;;;;;;;;;;;20.50;67.10;;;21.08;37.18;97982.09;4922969;28;114143;-76
2023/04/22 10:17:13;;;;;;;;;;;20.50;66.20;;;21.15;37.02;97972.88;4925759;28;124339;-87
2023/04/22 10:19:40;;;;;;;;;;;20.60;66.70;;;21.22;36.57;97969.22;4927842;28;123861;-81
2023/04/22 10:22:09;;;;;;;;;;;20.70;65.90;;;21.27;37.11;97960.41;4941521;28;114500;-82
2023/04/22 10:24:38;;;;;;;;;;;20.70;65.80;;;21.35;36.86;97961.97;4927643;28;113928;-88
2023/04/22 10:27:09;;;;;;;;;;;20.80;65.70;;;21.44;36.27;97956.78;4921439;28;124310;-80
2023/04/22 10:29:41;;;;;;;;;;;20.90;65.20;;;21.54;36.35;97960.75;4925444;28;124791;-84
2023/04/22 10:32:10;;;;;;;;;;;21.00;64.80;;;21.64;35.14;97956.31;4928026;28;114561;-80
2023/04/22 10:34:39;;;;;;;;;;;21.10;63.90;;;21.71;35.16;97959.06;4924060;28;114001;-81
2023/04/22 10:37:10;;;;;;;;;;;21.10;62.70;;;21.78;34.36;97962.66;4918843;28;125403;-77
2023/04/22 10:39:41;;;;;;;;;;;21.20;61.70;;;21.86;31.69;97952.19;4924128;28;123879;-78
2023/04/22 10:42:10;;;;;;;;;;;21.30;57.30;;;21.91;31.46;97951.78;4917659;28;115688;-84
2023/04/22 10:44:45;;;;;;;;;;;21.40;56.90;;;21.99;31.83;97939.28;4922035;28;114942;-79
2023/04/22 10:47:23;;;;;;;;;;;21.40;56.60;;;22.09;31.81;97937.63;4929474;28;124831;-77
2023/04/22 10:49:50;;;;;;;;;;;21.50;57.30;;;22.20;32.41;97926.34;4926507;28;123653;-77
2023/04/22 10:52:28;;;;;;;;;;;21.60;57.40;;;22.34;31.30;97933.88;4935132;28;114827;-77
2023/04/22 10:54:56;;;;;;;;;;;21.70;55.80;;;22.44;31.60;97925.34;4921998;28;113693;-76
2023/04/22 10:57:30;;;;;;;;;;;21.90;56.30;;;22.58;31.04;97927.25;4924838;28;124090;-78
2023/04/22 10:59:59;;;;;;;;;;;21.90;55.30;;;22.70;30.32;97920.31;4928744;28;124604;-77
2023/04/22 11:02:28;;;;;;;;;;;22.10;53.40;;;22.82;30.08;97928.25;4927807;28;113825;-79
2023/04/22 11:05:21;;;;;;;;;;;22.20;53.30;;;22.92;29.87;97916.09;4920541;28;113478;-78
2023/04/22 11:07:49;;;;;;;;;;;22.30;53.40;;;23.04;29.20;97928.09;4926063;28;124149;-80
2023/04/22 11:10:42;;;;;;;;;;;22.50;52.30;;;23.10;27.76;97917.97;4914376;28;123628;-78
2023/04/22 11:13:13;;;;;;;;;;;22.50;49.90;;;23.15;27.96;97915.50;4923486;28;114324;-80
2023/04/22 11:15:41;;;;;;;;;;;22.60;49.20;;;23.20;28.17;97919.88;4928139;28;114511;-79
2023/04/22 11:18:12;;;;;;;;;;;22.70;49.60;;;23.27;28.30;97916.19;4921013;28;124002;-79
2023/04/22 11:20:39;;;;;;;;;;;22.70;48.40;;;23.35;27.59;97921.31;4927244;28;124456;-81
2023/04/22 11:23:07;;;;;;;;;;;22.80;48.40;;;23.43;27.71;97918.41;4929287;28;114401;-80
2023/04/22 11:25:36;;;;;;;;;;;22.90;48.50;;;23.50;27.26;97921.16;4929011;28;114162;-79
2023/04/22 11:28:05;;;;;;;;;;;23.00;48.20;;;23.56;26.56;97936.38;4927153;28;124655;-77